X  Sluiten METAR luchtvaart weer gegevens      LFQQ Lille-Lesquin Airport
Temperatuur
25°C Temperatuur
9°C Dauwpunt
36% Vochtigheid



Wind
10 KM/U
6 MPH
3 M/S
5 KTS



130°
ZO
Huidig weer

Helder Helder
Luchtdruk 1015.92 (hPa) - 30 (inHg)
Zicht 6.2 (mijl) - 10 (km)
Vliegveld
Vliegveld code LFQQ

Locatie : Lille-Lesquin Airport
Afstand: 45 (km)

Metar:
LFQQ 281730Z AUTO 13005KT 100V160 CAVOK 25/09 Q1016 NOSIG

Tijd: 28-06-2022 19:30 CEST